UAE2PK OMDB-EDDF
Flight info
| Callsign | UAE2PK |
|---|---|
| Flight time | N/A |
| Altitude | 38000 |
| Route | RIDAP M557 TUMAK L602 GADSI M860 SEPTU DCT VUSEB/N0481F400 M860 NINVA UM860 ODALI UL852 NEGEM DCT MAXOV DCT IRLOX DCT BALUX DCT TEKNO DCT ABETI DCT TAGAS DCT SUBEN DCT AKINI T161 DEBHI DEBHI1B |
| Aircraft | A359/H-SDE2E3GHIJ3J4J5LM1ORWXY/LB1D1 |
Departure
| Time | 2026-04-24 14:44 |
|---|---|
| Airport | Dubai International Airport (OMDB) |
Arrival
| Time | N/A |
|---|---|
| Airport | Frankfurt Main Airport (EDDF) |
| Time | Latitude | Longitude | Altitude | Speed | Heading |
|---|---|---|---|---|---|
| 2026-04-24 14:12 | 25.24843 | 55.36372 | 27 ft | 0 kts | 211° |
| 2026-04-24 14:18 | 25.24844 | 55.36372 | 27 ft | 0 kts | 211° |
| 2026-04-24 14:19 | 25.24844 | 55.36373 | 27 ft | 0 kts | 211° |
| 2026-04-24 14:26 | 25.24846 | 55.36374 | 27 ft | 0 kts | 211° |
| 2026-04-24 14:27 | 25.24848 | 55.36376 | 27 ft | 0 kts | 211° |
| 2026-04-24 14:27 | 25.24851 | 55.36378 | 27 ft | 0 kts | 211° |
| 2026-04-24 14:27 | 25.24854 | 55.36380 | 27 ft | 1 kts | 211° |
| 2026-04-24 14:27 | 25.24856 | 55.36381 | 27 ft | 0 kts | 211° |
| 2026-04-24 14:28 | 25.24843 | 55.36372 | 27 ft | 0 kts | 211° |
| 2026-04-24 14:30 | 25.24864 | 55.36386 | 26 ft | 4 kts | 211° |
| 2026-04-24 14:30 | 25.24886 | 55.36401 | 25 ft | 3 kts | 211° |
| 2026-04-24 14:31 | 25.24904 | 55.36415 | 26 ft | 4 kts | 236° |
| 2026-04-24 14:31 | 25.24911 | 55.36441 | 25 ft | 4 kts | 284° |
| 2026-04-24 14:31 | 25.24901 | 55.36466 | 25 ft | 4 kts | 302° |
| 2026-04-24 14:31 | 25.24887 | 55.36491 | 25 ft | 3 kts | 302° |
| 2026-04-24 14:32 | 25.24885 | 55.36493 | 25 ft | 0 kts | 302° |
| 2026-04-24 14:32 | 25.24885 | 55.36494 | 25 ft | 0 kts | 302° |
| 2026-04-24 14:34 | 25.24891 | 55.36483 | 27 ft | 6 kts | 300° |
| 2026-04-24 14:35 | 25.24912 | 55.36438 | 25 ft | 8 kts | 295° |
| 2026-04-24 14:35 | 25.24941 | 55.36384 | 27 ft | 9 kts | 306° |
| 2026-04-24 14:35 | 25.24985 | 55.36316 | 27 ft | 13 kts | 305° |
| 2026-04-24 14:35 | 25.25039 | 55.36222 | 27 ft | 16 kts | 301° |
| 2026-04-24 14:36 | 25.25105 | 55.36107 | 27 ft | 19 kts | 308° |
| 2026-04-24 14:36 | 25.25218 | 55.36018 | 27 ft | 22 kts | 329° |
| 2026-04-24 14:36 | 25.25326 | 55.35895 | 27 ft | 24 kts | 302° |
| 2026-04-24 14:36 | 25.25417 | 55.35733 | 27 ft | 26 kts | 302° |
| 2026-04-24 14:37 | 25.25512 | 55.35564 | 27 ft | 26 kts | 302° |
| 2026-04-24 14:37 | 25.25608 | 55.35394 | 27 ft | 27 kts | 302° |
| 2026-04-24 14:37 | 25.25705 | 55.35222 | 27 ft | 17 kts | 302° |
| 2026-04-24 14:37 | 25.25710 | 55.35214 | 27 ft | 0 kts | 302° |
| 2026-04-24 14:38 | 25.25714 | 55.35212 | 27 ft | 3 kts | 323° |
| 2026-04-24 14:38 | 25.25818 | 55.35251 | 27 ft | 30 kts | 32° |
| 2026-04-24 14:38 | 25.25995 | 55.35416 | 28 ft | 36 kts | 70° |
| 2026-04-24 14:39 | 25.25925 | 55.35675 | 28 ft | 37 kts | 120° |
| 2026-04-24 14:39 | 25.25791 | 55.35916 | 28 ft | 37 kts | 123° |
| 2026-04-24 14:39 | 25.25654 | 55.36152 | 29 ft | 37 kts | 123° |
| 2026-04-24 14:39 | 25.25518 | 55.36392 | 28 ft | 37 kts | 121° |
| 2026-04-24 14:40 | 25.25386 | 55.36632 | 28 ft | 37 kts | 122° |
| 2026-04-24 14:40 | 25.25248 | 55.36875 | 28 ft | 37 kts | 122° |
| 2026-04-24 14:40 | 25.25110 | 55.37119 | 29 ft | 37 kts | 122° |
| 2026-04-24 14:40 | 25.24974 | 55.37364 | 30 ft | 37 kts | 122° |
| 2026-04-24 14:41 | 25.24836 | 55.37609 | 29 ft | 38 kts | 122° |
| 2026-04-24 14:41 | 25.24708 | 55.37832 | 28 ft | 18 kts | 122° |
| 2026-04-24 14:41 | 25.24675 | 55.37942 | 29 ft | 15 kts | 69° |
| 2026-04-24 14:41 | 25.24687 | 55.37962 | 29 ft | 0 kts | 49° |
| 2026-04-24 14:42 | 25.24689 | 55.37964 | 29 ft | 3 kts | 46° |
| 2026-04-24 14:42 | 25.24725 | 55.37995 | 30 ft | 8 kts | 35° |
| 2026-04-24 14:42 | 25.24775 | 55.38013 | 31 ft | 8 kts | 359° |
| 2026-04-24 14:43 | 25.24829 | 55.37978 | 31 ft | 10 kts | 313° |
| 2026-04-24 14:43 | 25.24846 | 55.37950 | 31 ft | 0 kts | 302° |
| 2026-04-24 14:43 | 25.24878 | 55.37892 | 32 ft | 35 kts | 302° |
| 2026-04-24 14:44 | 25.25128 | 55.37446 | 33 ft | 100 kts | 301° |
| 2026-04-24 14:44 | 25.25590 | 55.36612 | 31 ft | 153 kts | 301° |
| 2026-04-24 14:44 | 25.26199 | 55.35527 | 470 ft | 164 kts | 303° |
| 2026-04-24 14:44 | 25.26727 | 55.34494 | 1244 ft | 151 kts | 301° |
| 2026-04-24 14:45 | 25.27159 | 55.33499 | 1766 ft | 144 kts | 298° |
| 2026-04-24 14:45 | 25.27715 | 55.32515 | 1923 ft | 157 kts | 307° |
| 2026-04-24 14:45 | 25.28360 | 55.31473 | 2101 ft | 172 kts | 306° |
| 2026-04-24 14:45 | 25.29045 | 55.30321 | 2292 ft | 188 kts | 304° |
| 2026-04-24 14:46 | 25.29774 | 55.29055 | 2455 ft | 203 kts | 303° |
| 2026-04-24 14:46 | 25.30606 | 55.27723 | 2685 ft | 218 kts | 306° |
| 2026-04-24 14:46 | 25.31354 | 55.26196 | 2871 ft | 236 kts | 289° |
| 2026-04-24 14:46 | 25.31713 | 55.24365 | 3127 ft | 251 kts | 278° |
| 2026-04-24 14:47 | 25.31865 | 55.23081 | 3375 ft | 257 kts | 277° |
| 2026-04-24 14:47 | 25.32126 | 55.20453 | 4080 ft | 261 kts | 276° |
| 2026-04-24 14:47 | 25.32314 | 55.18458 | 4643 ft | 262 kts | 275° |
| 2026-04-24 14:47 | 25.32500 | 55.16448 | 5178 ft | 263 kts | 275° |
| 2026-04-24 14:48 | 25.32687 | 55.14426 | 5707 ft | 265 kts | 275° |
| 2026-04-24 14:48 | 25.32874 | 55.12396 | 6248 ft | 267 kts | 275° |
| 2026-04-24 14:48 | 25.33062 | 55.10350 | 6745 ft | 268 kts | 275° |
| 2026-04-24 14:48 | 25.33250 | 55.08289 | 7232 ft | 271 kts | 275° |
| 2026-04-24 14:49 | 25.33440 | 55.06211 | 7723 ft | 273 kts | 275° |
| 2026-04-24 14:49 | 25.33631 | 55.04116 | 8237 ft | 275 kts | 275° |
| 2026-04-24 14:49 | 25.33823 | 55.02007 | 8750 ft | 277 kts | 275° |
| 2026-04-24 14:49 | 25.34014 | 54.99912 | 9254 ft | 279 kts | 275° |
| 2026-04-24 14:50 | 25.34209 | 54.97767 | 9759 ft | 282 kts | 275° |
| 2026-04-24 14:50 | 25.34405 | 54.95593 | 10124 ft | 289 kts | 275° |
| 2026-04-24 14:50 | 25.34609 | 54.93334 | 10342 ft | 301 kts | 275° |
| 2026-04-24 14:50 | 25.34871 | 54.90991 | 10543 ft | 314 kts | 280° |
| 2026-04-24 14:51 | 25.35444 | 54.88613 | 10745 ft | 326 kts | 286° |
| 2026-04-24 14:51 | 25.36139 | 54.86194 | 10942 ft | 337 kts | 286° |
| 2026-04-24 14:51 | 25.36868 | 54.83687 | 11128 ft | 347 kts | 286° |
| 2026-04-24 14:51 | 25.37612 | 54.81116 | 11347 ft | 355 kts | 287° |
| 2026-04-24 14:52 | 25.38367 | 54.78494 | 11602 ft | 361 kts | 286° |
| 2026-04-24 14:52 | 25.39132 | 54.75826 | 11939 ft | 365 kts | 286° |
| 2026-04-24 14:52 | 25.39890 | 54.73179 | 12271 ft | 368 kts | 286° |
| 2026-04-24 14:52 | 25.40665 | 54.70476 | 12635 ft | 370 kts | 286° |
| 2026-04-24 14:53 | 25.41442 | 54.67757 | 12993 ft | 372 kts | 286° |
| 2026-04-24 14:53 | 25.42221 | 54.65018 | 13360 ft | 374 kts | 286° |
| 2026-04-24 14:53 | 25.43002 | 54.62269 | 13719 ft | 376 kts | 286° |
| 2026-04-24 14:53 | 25.43795 | 54.59510 | 14037 ft | 377 kts | 287° |
| 2026-04-24 14:54 | 25.44609 | 54.56745 | 14376 ft | 379 kts | 287° |
| 2026-04-24 14:54 | 25.45433 | 54.53977 | 14706 ft | 380 kts | 287° |
| 2026-04-24 14:54 | 25.46261 | 54.51199 | 14835 ft | 380 kts | 287° |
| 2026-04-24 14:54 | 25.47078 | 54.48452 | 14972 ft | 383 kts | 287° |
| 2026-04-24 14:55 | 25.47640 | 54.46559 | 15195 ft | 384 kts | 287° |
| 2026-04-24 14:55 | 25.48740 | 54.42843 | 15708 ft | 384 kts | 287° |
| 2026-04-24 14:55 | 25.49569 | 54.40031 | 16074 ft | 385 kts | 287° |
| 2026-04-24 14:55 | 25.50401 | 54.37210 | 16467 ft | 385 kts | 287° |
| 2026-04-24 14:56 | 25.51230 | 54.34397 | 16874 ft | 385 kts | 287° |
| 2026-04-24 14:56 | 25.52060 | 54.31573 | 17218 ft | 386 kts | 287° |
| 2026-04-24 14:56 | 25.52892 | 54.28740 | 17565 ft | 388 kts | 287° |
| 2026-04-24 14:56 | 25.53716 | 54.25933 | 17912 ft | 389 kts | 287° |
| 2026-04-24 14:57 | 25.54555 | 54.23080 | 18252 ft | 390 kts | 287° |
| 2026-04-24 14:57 | 25.55398 | 54.20218 | 18523 ft | 392 kts | 287° |
| 2026-04-24 14:57 | 25.56243 | 54.17339 | 18785 ft | 394 kts | 287° |
| 2026-04-24 14:57 | 25.57089 | 54.14446 | 19078 ft | 395 kts | 287° |
| 2026-04-24 14:58 | 25.57939 | 54.11541 | 19349 ft | 397 kts | 286° |
| 2026-04-24 14:58 | 25.58791 | 54.08626 | 19620 ft | 399 kts | 286° |
| 2026-04-24 14:58 | 25.59647 | 54.05703 | 19889 ft | 400 kts | 286° |
| 2026-04-24 14:58 | 25.60487 | 54.02801 | 20155 ft | 402 kts | 286° |
| 2026-04-24 14:59 | 25.61329 | 53.99846 | 20432 ft | 403 kts | 285° |
| 2026-04-24 14:59 | 25.62170 | 53.96881 | 20725 ft | 404 kts | 285° |
| 2026-04-24 14:59 | 25.63011 | 53.93907 | 21015 ft | 405 kts | 285° |
| 2026-04-24 14:59 | 25.63854 | 53.90932 | 21282 ft | 405 kts | 285° |
| 2026-04-24 15:00 | 25.64702 | 53.87942 | 21544 ft | 407 kts | 285° |
| 2026-04-24 15:00 | 25.65552 | 53.84944 | 21804 ft | 408 kts | 285° |
| 2026-04-24 15:00 | 25.66405 | 53.81938 | 22061 ft | 410 kts | 285° |
| 2026-04-24 15:00 | 25.67262 | 53.78917 | 22310 ft | 411 kts | 285° |
| 2026-04-24 15:01 | 25.68110 | 53.75928 | 22558 ft | 413 kts | 285° |
| 2026-04-24 15:01 | 25.68972 | 53.72886 | 22771 ft | 415 kts | 285° |
| 2026-04-24 15:01 | 25.69842 | 53.69823 | 22944 ft | 418 kts | 285° |
| 2026-04-24 15:01 | 25.70710 | 53.66743 | 23207 ft | 419 kts | 285° |
| 2026-04-24 15:02 | 25.71578 | 53.63652 | 23427 ft | 420 kts | 285° |
| 2026-04-24 15:02 | 25.72446 | 53.60553 | 23634 ft | 422 kts | 285° |
| 2026-04-24 15:02 | 25.73317 | 53.57441 | 23825 ft | 423 kts | 285° |
| 2026-04-24 15:02 | 25.74191 | 53.54320 | 24020 ft | 424 kts | 285° |
| 2026-04-24 15:03 | 25.74771 | 53.52248 | 24144 ft | 425 kts | 285° |
| 2026-04-24 15:03 | 25.75937 | 53.48090 | 24373 ft | 428 kts | 285° |
| 2026-04-24 15:03 | 25.76823 | 53.44937 | 24564 ft | 429 kts | 285° |
| 2026-04-24 15:03 | 25.77710 | 53.41775 | 24759 ft | 430 kts | 285° |
| 2026-04-24 15:04 | 25.78600 | 53.38602 | 24942 ft | 431 kts | 285° |
| 2026-04-24 15:04 | 25.79490 | 53.35422 | 25138 ft | 432 kts | 285° |
| 2026-04-24 15:04 | 25.80383 | 53.32232 | 25313 ft | 433 kts | 285° |
| 2026-04-24 15:04 | 25.81277 | 53.29034 | 25494 ft | 435 kts | 285° |
| 2026-04-24 15:05 | 25.82171 | 53.25832 | 25679 ft | 436 kts | 285° |
| 2026-04-24 15:05 | 25.83071 | 53.22605 | 25843 ft | 438 kts | 285° |
| 2026-04-24 15:05 | 25.84000 | 53.19429 | 26017 ft | 440 kts | 288° |
| 2026-04-24 15:05 | 25.85160 | 53.16279 | 26209 ft | 442 kts | 290° |
| 2026-04-24 15:06 | 25.86384 | 53.13149 | 26393 ft | 443 kts | 291° |
| 2026-04-24 15:06 | 25.87644 | 53.10020 | 26576 ft | 444 kts | 291° |
| 2026-04-24 15:06 | 25.88921 | 53.06893 | 26767 ft | 446 kts | 292° |
| 2026-04-24 15:06 | 25.90208 | 53.03753 | 26955 ft | 447 kts | 292° |
| 2026-04-24 15:07 | 25.91495 | 53.00609 | 27156 ft | 448 kts | 292° |
| 2026-04-24 15:07 | 25.92783 | 52.97454 | 27348 ft | 449 kts | 292° |
| 2026-04-24 15:07 | 25.94052 | 52.94336 | 27536 ft | 450 kts | 292° |
| 2026-04-24 15:07 | 25.95342 | 52.91159 | 27722 ft | 452 kts | 292° |
| 2026-04-24 15:08 | 25.96634 | 52.87971 | 27909 ft | 453 kts | 292° |
| 2026-04-24 15:08 | 25.97926 | 52.84780 | 28115 ft | 454 kts | 291° |
| 2026-04-24 15:08 | 25.99222 | 52.81576 | 28313 ft | 455 kts | 291° |
| 2026-04-24 15:08 | 26.00523 | 52.78356 | 28507 ft | 457 kts | 291° |
| 2026-04-24 15:09 | 26.01827 | 52.75128 | 28688 ft | 458 kts | 292° |
| 2026-04-24 15:09 | 26.03162 | 52.71917 | 29071 ft | 455 kts | 293° |
| 2026-04-24 15:09 | 26.04559 | 52.68780 | 29530 ft | 452 kts | 294° |
| 2026-04-24 15:09 | 26.05971 | 52.65700 | 29702 ft | 454 kts | 294° |
| 2026-04-24 15:10 | 26.07415 | 52.62567 | 29844 ft | 456 kts | 294° |
| 2026-04-24 15:10 | 26.08859 | 52.59420 | 30019 ft | 458 kts | 294° |
| 2026-04-24 15:10 | 26.10300 | 52.56258 | 30175 ft | 459 kts | 294° |
| 2026-04-24 15:10 | 26.11738 | 52.53078 | 30335 ft | 460 kts | 294° |
| 2026-04-24 15:11 | 26.13181 | 52.49888 | 30461 ft | 463 kts | 294° |
| 2026-04-24 15:11 | 26.14627 | 52.46684 | 30595 ft | 464 kts | 294° |
| 2026-04-24 15:11 | 26.16076 | 52.43467 | 30790 ft | 465 kts | 293° |
| 2026-04-24 15:11 | 26.17506 | 52.40288 | 30977 ft | 466 kts | 293° |
| 2026-04-24 15:12 | 26.18957 | 52.37063 | 31204 ft | 466 kts | 293° |
| 2026-04-24 15:12 | 26.21860 | 52.30603 | 31555 ft | 468 kts | 293° |
| 2026-04-24 15:12 | 26.23309 | 52.27356 | 31751 ft | 468 kts | 292° |
| 2026-04-24 15:13 | 26.24729 | 52.24092 | 31895 ft | 469 kts | 292° |
| 2026-04-24 15:13 | 26.26137 | 52.20819 | 32141 ft | 468 kts | 292° |
| 2026-04-24 15:13 | 26.27064 | 52.18655 | 32331 ft | 467 kts | 292° |
| 2026-04-24 15:13 | 26.28461 | 52.15399 | 32612 ft | 465 kts | 291° |
| 2026-04-24 15:14 | 26.29855 | 52.12154 | 32885 ft | 464 kts | 291° |
| 2026-04-24 15:14 | 26.31701 | 52.07867 | 33257 ft | 462 kts | 291° |
| 2026-04-24 15:14 | 26.33091 | 52.04653 | 33616 ft | 459 kts | 291° |
| 2026-04-24 15:14 | 26.34479 | 52.01443 | 33828 ft | 460 kts | 291° |
| 2026-04-24 15:15 | 26.35866 | 51.98228 | 34009 ft | 461 kts | 291° |
| 2026-04-24 15:15 | 26.36784 | 51.96091 | 34178 ft | 459 kts | 290° |
| 2026-04-24 15:15 | 26.38005 | 51.92826 | 34465 ft | 455 kts | 287° |
| 2026-04-24 15:15 | 26.39148 | 51.89547 | 34770 ft | 452 kts | 287° |
| 2026-04-24 15:16 | 26.40264 | 51.86278 | 35066 ft | 450 kts | 286° |
| 2026-04-24 15:16 | 26.41362 | 51.83023 | 35359 ft | 448 kts | 287° |
| 2026-04-24 15:16 | 26.42454 | 51.79776 | 35639 ft | 446 kts | 286° |
| 2026-04-24 15:16 | 26.43535 | 51.76536 | 35846 ft | 446 kts | 286° |
| 2026-04-24 15:17 | 26.44614 | 51.73295 | 36152 ft | 444 kts | 286° |
| 2026-04-24 15:17 | 26.45680 | 51.70097 | 36646 ft | 437 kts | 286° |
| 2026-04-24 15:17 | 26.46738 | 51.66933 | 36985 ft | 434 kts | 287° |
| 2026-04-24 15:17 | 26.47795 | 51.63776 | 37220 ft | 434 kts | 286° |
| 2026-04-24 15:18 | 26.48835 | 51.60666 | 37447 ft | 433 kts | 286° |
| 2026-04-24 15:18 | 26.49882 | 51.57519 | 37703 ft | 432 kts | 286° |
| 2026-04-24 15:18 | 26.50925 | 51.54374 | 37889 ft | 432 kts | 286° |
| 2026-04-24 15:18 | 26.51967 | 51.51229 | 37914 ft | 432 kts | 286° |
| 2026-04-24 15:19 | 26.54054 | 51.44932 | 37925 ft | 432 kts | 286° |
| 2026-04-24 15:19 | 26.56143 | 51.38628 | 37916 ft | 433 kts | 286° |
| 2026-04-24 15:20 | 26.58213 | 51.32375 | 37922 ft | 431 kts | 286° |
| 2026-04-24 15:20 | 26.60293 | 51.26100 | 37916 ft | 430 kts | 286° |
| 2026-04-24 15:21 | 26.62367 | 51.19836 | 37922 ft | 430 kts | 286° |
| 2026-04-24 15:21 | 26.64437 | 51.13570 | 37919 ft | 430 kts | 286° |
| 2026-04-24 15:22 | 26.66507 | 51.07297 | 37922 ft | 430 kts | 286° |
| 2026-04-24 15:23 | 26.69590 | 50.97927 | 37922 ft | 429 kts | 285° |
| 2026-04-24 15:23 | 26.72596 | 50.88503 | 37919 ft | 429 kts | 285° |
| 2026-04-24 15:25 | 26.77580 | 50.72842 | 37924 ft | 428 kts | 285° |
| 2026-04-24 15:26 | 26.85016 | 50.58264 | 37941 ft | 442 kts | 302° |
| 2026-04-24 15:27 | 26.97065 | 50.42547 | 37948 ft | 447 kts | 307° |
| 2026-04-24 15:29 | 27.09914 | 50.27487 | 37938 ft | 446 kts | 306° |
| 2026-04-24 15:31 | 27.26427 | 50.11399 | 37941 ft | 457 kts | 316° |
| 2026-04-24 15:33 | 27.46636 | 49.94238 | 37941 ft | 455 kts | 314° |
| 2026-04-24 15:34 | 27.59128 | 49.83175 | 37944 ft | 458 kts | 315° |
| 2026-04-24 15:35 | 27.71630 | 49.72131 | 37942 ft | 459 kts | 314° |
| 2026-04-24 15:36 | 27.76666 | 49.67669 | 37944 ft | 461 kts | 314° |
| 2026-04-24 15:36 | 27.84224 | 49.60947 | 37961 ft | 461 kts | 314° |
| 2026-04-24 15:37 | 27.89250 | 49.56451 | 37941 ft | 461 kts | 314° |
| 2026-04-24 15:37 | 27.94254 | 49.51971 | 37940 ft | 462 kts | 314° |
| 2026-04-24 15:38 | 27.99299 | 49.47451 | 37944 ft | 463 kts | 314° |
| 2026-04-24 15:38 | 28.04355 | 49.42920 | 37949 ft | 464 kts | 314° |
| 2026-04-24 15:39 | 28.09383 | 49.38346 | 37944 ft | 463 kts | 313° |
| 2026-04-24 15:39 | 28.14394 | 49.33752 | 37944 ft | 463 kts | 313° |
| 2026-04-24 15:40 | 28.19373 | 49.29191 | 37951 ft | 464 kts | 313° |
| 2026-04-24 15:40 | 28.24400 | 49.24587 | 37948 ft | 465 kts | 313° |
| 2026-04-24 15:41 | 28.29434 | 49.19981 | 37941 ft | 465 kts | 313° |
| 2026-04-24 15:41 | 28.34469 | 49.15364 | 37938 ft | 465 kts | 313° |
| 2026-04-24 15:42 | 28.39512 | 49.10811 | 37956 ft | 470 kts | 316° |
| 2026-04-24 15:42 | 28.44902 | 49.06562 | 37945 ft | 472 kts | 317° |
| 2026-04-24 15:43 | 28.50354 | 49.02379 | 37941 ft | 473 kts | 318° |
| 2026-04-24 15:43 | 28.55813 | 48.98207 | 37945 ft | 474 kts | 317° |
| 2026-04-24 15:44 | 28.61280 | 48.94013 | 37941 ft | 474 kts | 317° |
| 2026-04-24 15:44 | 28.66709 | 48.89838 | 37941 ft | 474 kts | 317° |
| 2026-04-24 15:45 | 28.72178 | 48.85626 | 37945 ft | 474 kts | 317° |
| 2026-04-24 15:45 | 28.77628 | 48.81423 | 37941 ft | 473 kts | 317° |
| 2026-04-24 15:46 | 28.83076 | 48.77225 | 37939 ft | 473 kts | 317° |
| 2026-04-24 15:46 | 28.88504 | 48.73069 | 37944 ft | 472 kts | 317° |
| 2026-04-24 15:47 | 28.93932 | 48.68916 | 37939 ft | 468 kts | 316° |
| 2026-04-24 15:47 | 28.99328 | 48.64774 | 37934 ft | 467 kts | 316° |
| 2026-04-24 15:48 | 29.04706 | 48.60631 | 37937 ft | 470 kts | 316° |
| 2026-04-24 15:48 | 29.10137 | 48.56447 | 37933 ft | 471 kts | 317° |
| 2026-04-24 15:49 | 29.15575 | 48.52258 | 37936 ft | 471 kts | 317° |
| 2026-04-24 15:49 | 29.21018 | 48.48058 | 37948 ft | 471 kts | 316° |
| 2026-04-24 15:50 | 29.26397 | 48.43905 | 37929 ft | 468 kts | 316° |
| 2026-04-24 15:50 | 29.31798 | 48.39724 | 37928 ft | 469 kts | 316° |
| 2026-04-24 15:51 | 29.37207 | 48.35528 | 37928 ft | 470 kts | 316° |
| 2026-04-24 15:51 | 29.42616 | 48.31335 | 37927 ft | 468 kts | 316° |
| 2026-04-24 15:52 | 29.48126 | 48.27322 | 37922 ft | 473 kts | 320° |
| 2026-04-24 15:52 | 29.53852 | 48.23663 | 37922 ft | 475 kts | 321° |
| 2026-04-24 15:53 | 29.59628 | 48.19985 | 37919 ft | 475 kts | 320° |
| 2026-04-24 15:53 | 29.65373 | 48.16240 | 37917 ft | 475 kts | 320° |
| 2026-04-24 15:54 | 29.71059 | 48.12487 | 37915 ft | 475 kts | 320° |
| 2026-04-24 15:54 | 29.76786 | 48.08696 | 37907 ft | 475 kts | 319° |
| 2026-04-24 15:55 | 29.82506 | 48.04906 | 37912 ft | 475 kts | 319° |
| 2026-04-24 15:55 | 29.88232 | 48.01109 | 37905 ft | 475 kts | 319° |
| 2026-04-24 15:56 | 29.93960 | 47.97307 | 37908 ft | 475 kts | 318° |
| 2026-04-24 15:56 | 29.99623 | 47.93491 | 37904 ft | 470 kts | 315° |
| 2026-04-24 15:57 | 30.02212 | 47.91273 | 37908 ft | 457 kts | 308° |
| 2026-04-24 15:57 | 30.04464 | 47.88750 | 37907 ft | 448 kts | 302° |
| 2026-04-24 15:57 | 30.08606 | 47.83426 | 37907 ft | 444 kts | 300° |
| 2026-04-24 15:58 | 30.12630 | 47.78014 | 37903 ft | 444 kts | 300° |
| 2026-04-24 15:58 | 30.16658 | 47.72578 | 37903 ft | 445 kts | 300° |
| 2026-04-24 15:59 | 30.20674 | 47.67190 | 37907 ft | 445 kts | 300° |
| 2026-04-24 15:59 | 30.24713 | 47.61784 | 37894 ft | 444 kts | 300° |
| 2026-04-24 16:00 | 30.28746 | 47.56375 | 37897 ft | 444 kts | 300° |
| 2026-04-24 16:00 | 30.32784 | 47.50948 | 37919 ft | 445 kts | 300° |
| 2026-04-24 16:01 | 30.36789 | 47.45564 | 37891 ft | 442 kts | 300° |
| 2026-04-24 16:01 | 30.40796 | 47.40170 | 37902 ft | 441 kts | 300° |
| 2026-04-24 16:02 | 30.44801 | 47.34766 | 37902 ft | 443 kts | 300° |
| 2026-04-24 16:02 | 30.48819 | 47.29332 | 37894 ft | 443 kts | 301° |
| 2026-04-24 16:03 | 30.52821 | 47.23926 | 37895 ft | 441 kts | 301° |
| 2026-04-24 16:03 | 30.56929 | 47.18681 | 37903 ft | 450 kts | 307° |
| 2026-04-24 16:04 | 30.61751 | 47.13940 | 37899 ft | 457 kts | 310° |
| 2026-04-24 16:04 | 30.66722 | 47.09298 | 37898 ft | 459 kts | 310° |
| 2026-04-24 16:05 | 30.74209 | 47.02349 | 37893 ft | 459 kts | 310° |
| 2026-04-24 16:06 | 30.81625 | 46.95414 | 37887 ft | 457 kts | 310° |
| 2026-04-24 16:07 | 30.89052 | 46.88436 | 37889 ft | 458 kts | 310° |
| 2026-04-24 16:07 | 30.96479 | 46.81448 | 37889 ft | 458 kts | 310° |
| 2026-04-24 16:08 | 31.03869 | 46.74482 | 37886 ft | 457 kts | 310° |
| 2026-04-24 16:09 | 31.11281 | 46.67482 | 37905 ft | 457 kts | 310° |
| 2026-04-24 16:09 | 31.16217 | 46.62810 | 37903 ft | 456 kts | 310° |
| 2026-04-24 16:11 | 31.28521 | 46.51135 | 37897 ft | 459 kts | 310° |
| 2026-04-24 16:11 | 31.33477 | 46.46423 | 37893 ft | 459 kts | 310° |
| 2026-04-24 16:12 | 31.40912 | 46.39342 | 37897 ft | 460 kts | 309° |
| 2026-04-24 16:13 | 31.48327 | 46.32262 | 37931 ft | 461 kts | 310° |
| 2026-04-24 16:14 | 31.58259 | 46.22762 | 37906 ft | 460 kts | 309° |
| 2026-04-24 16:14 | 31.65653 | 46.15669 | 37912 ft | 459 kts | 309° |
| 2026-04-24 16:15 | 31.73076 | 46.08531 | 37912 ft | 460 kts | 309° |
| 2026-04-24 16:16 | 31.80451 | 46.01341 | 37915 ft | 457 kts | 308° |
| 2026-04-24 16:17 | 31.92552 | 45.89268 | 37919 ft | 458 kts | 308° |
| 2026-04-24 16:18 | 32.02267 | 45.79599 | 37923 ft | 457 kts | 308° |
| 2026-04-24 16:19 | 32.09508 | 45.72369 | 37919 ft | 457 kts | 308° |
| 2026-04-24 16:20 | 32.16789 | 45.65085 | 37922 ft | 458 kts | 308° |
| 2026-04-24 16:20 | 32.24058 | 45.57800 | 37928 ft | 456 kts | 309° |
| 2026-04-24 16:21 | 32.31290 | 45.50532 | 37950 ft | 457 kts | 309° |
| 2026-04-24 16:22 | 32.36137 | 45.45650 | 37928 ft | 458 kts | 309° |
| 2026-04-24 16:22 | 32.43418 | 45.38310 | 37927 ft | 458 kts | 309° |
| 2026-04-24 16:23 | 32.48239 | 45.33437 | 37933 ft | 460 kts | 309° |
| 2026-04-24 16:24 | 32.55639 | 45.26154 | 37937 ft | 467 kts | 315° |
| 2026-04-24 16:24 | 32.61006 | 45.21772 | 37935 ft | 468 kts | 316° |
| 2026-04-24 16:25 | 32.66416 | 45.17491 | 37934 ft | 467 kts | 316° |
| 2026-04-24 16:25 | 32.71801 | 45.13235 | 37933 ft | 468 kts | 316° |
| 2026-04-24 16:26 | 32.79890 | 45.06817 | 37931 ft | 463 kts | 316° |
| 2026-04-24 16:27 | 32.87912 | 45.00418 | 37945 ft | 463 kts | 316° |
| 2026-04-24 16:27 | 32.93212 | 44.96181 | 37922 ft | 462 kts | 316° |
| 2026-04-24 16:28 | 32.98554 | 44.91907 | 37922 ft | 463 kts | 316° |
| 2026-04-24 16:28 | 33.06562 | 44.85489 | 37922 ft | 463 kts | 316° |
| 2026-04-24 16:29 | 33.11867 | 44.81230 | 37918 ft | 463 kts | 316° |
| 2026-04-24 16:30 | 33.22941 | 44.73231 | 37920 ft | 481 kts | 329° |
| 2026-04-24 16:30 | 33.29448 | 44.70956 | 37908 ft | 490 kts | 336° |
| 2026-04-24 16:31 | 33.36089 | 44.69013 | 37905 ft | 492 kts | 336° |
| 2026-04-24 16:31 | 33.42697 | 44.67122 | 37905 ft | 492 kts | 336° |
| 2026-04-24 16:32 | 33.49344 | 44.65184 | 37910 ft | 491 kts | 336° |
| 2026-04-24 16:32 | 33.55988 | 44.63222 | 37910 ft | 491 kts | 336° |
| 2026-04-24 16:33 | 33.62622 | 44.61253 | 37904 ft | 492 kts | 336° |
| 2026-04-24 16:33 | 33.69303 | 44.59263 | 37902 ft | 496 kts | 336° |
| 2026-04-24 16:34 | 33.75963 | 44.57284 | 37905 ft | 497 kts | 337° |
| 2026-04-24 16:34 | 33.82671 | 44.55289 | 37925 ft | 497 kts | 337° |
| 2026-04-24 16:35 | 33.89372 | 44.53293 | 37897 ft | 496 kts | 337° |
| 2026-04-24 16:35 | 33.96063 | 44.51295 | 37893 ft | 496 kts | 337° |
| 2026-04-24 16:36 | 34.02710 | 44.49306 | 37894 ft | 495 kts | 337° |
| 2026-04-24 16:36 | 34.09390 | 44.47305 | 37894 ft | 494 kts | 337° |
| 2026-04-24 16:37 | 34.16053 | 44.45305 | 37885 ft | 493 kts | 337° |
| 2026-04-24 16:37 | 34.22717 | 44.43300 | 37887 ft | 493 kts | 337° |
| 2026-04-24 16:38 | 34.29331 | 44.41308 | 37886 ft | 493 kts | 337° |
| 2026-04-24 16:38 | 34.35989 | 44.39299 | 37890 ft | 493 kts | 337° |
| 2026-04-24 16:39 | 34.42647 | 44.37287 | 37884 ft | 493 kts | 337° |
| 2026-04-24 16:39 | 34.49309 | 44.35272 | 37887 ft | 493 kts | 337° |
| 2026-04-24 16:40 | 34.55915 | 44.33269 | 37885 ft | 493 kts | 337° |
| 2026-04-24 16:40 | 34.62566 | 44.31250 | 37886 ft | 493 kts | 337° |
| 2026-04-24 16:41 | 34.69219 | 44.29226 | 37889 ft | 493 kts | 337° |
| 2026-04-24 16:41 | 34.75860 | 44.27204 | 37874 ft | 492 kts | 337° |
| 2026-04-24 16:42 | 34.82452 | 44.25192 | 37877 ft | 492 kts | 337° |
| 2026-04-24 16:42 | 34.89084 | 44.23165 | 37877 ft | 492 kts | 337° |
| 2026-04-24 16:43 | 34.95713 | 44.21137 | 37867 ft | 490 kts | 337° |
| 2026-04-24 16:43 | 35.02322 | 44.19111 | 37867 ft | 489 kts | 337° |
| 2026-04-24 16:44 | 35.08879 | 44.17096 | 37867 ft | 489 kts | 337° |
| 2026-04-24 16:44 | 35.15479 | 44.15064 | 37870 ft | 488 kts | 337° |
| 2026-04-24 16:45 | 35.22063 | 44.13036 | 37873 ft | 488 kts | 337° |
| 2026-04-24 16:45 | 35.28644 | 44.11004 | 37876 ft | 488 kts | 337° |
| 2026-04-24 16:46 | 35.35183 | 44.08981 | 37880 ft | 487 kts | 337° |
| 2026-04-24 16:46 | 35.41757 | 44.06946 | 37887 ft | 487 kts | 337° |
| 2026-04-24 16:47 | 35.48331 | 44.04906 | 37881 ft | 487 kts | 337° |
| 2026-04-24 16:47 | 35.54902 | 44.02864 | 37905 ft | 487 kts | 337° |
| 2026-04-24 16:48 | 35.61464 | 44.00822 | 37895 ft | 486 kts | 337° |
| 2026-04-24 16:48 | 35.67971 | 43.98793 | 37892 ft | 486 kts | 337° |
| 2026-04-24 16:49 | 35.74521 | 43.96746 | 37928 ft | 486 kts | 337° |
| 2026-04-24 16:49 | 35.81051 | 43.94705 | 37899 ft | 483 kts | 337° |
| 2026-04-24 16:50 | 35.87512 | 43.92680 | 37916 ft | 482 kts | 337° |
| 2026-04-24 16:50 | 35.94001 | 43.90642 | 37908 ft | 481 kts | 337° |
| 2026-04-24 16:51 | 36.00479 | 43.88604 | 37913 ft | 480 kts | 336° |
| 2026-04-24 16:51 | 36.06948 | 43.86566 | 37912 ft | 479 kts | 336° |
| 2026-04-24 16:52 | 36.13405 | 43.84529 | 37911 ft | 478 kts | 336° |
| 2026-04-24 16:52 | 36.19809 | 43.82504 | 37929 ft | 478 kts | 336° |
| 2026-04-24 16:53 | 36.26242 | 43.80442 | 37936 ft | 475 kts | 334° |
| 2026-04-24 16:53 | 36.29335 | 43.79086 | 38122 ft | 469 kts | 329° |
| 2026-04-24 16:53 | 36.32362 | 43.77598 | 38379 ft | 467 kts | 329° |
| 2026-04-24 16:54 | 36.35364 | 43.76075 | 38659 ft | 466 kts | 328° |
| 2026-04-24 16:54 | 36.38344 | 43.74536 | 38923 ft | 463 kts | 328° |
| 2026-04-24 16:54 | 36.41274 | 43.73010 | 39082 ft | 463 kts | 328° |
| 2026-04-24 16:54 | 36.44241 | 43.71459 | 39220 ft | 463 kts | 328° |
| 2026-04-24 16:55 | 36.47215 | 43.69904 | 39347 ft | 464 kts | 328° |
| 2026-04-24 16:55 | 36.50196 | 43.68346 | 39459 ft | 465 kts | 328° |
| 2026-04-24 16:55 | 36.53179 | 43.66791 | 39612 ft | 465 kts | 328° |
| 2026-04-24 16:55 | 36.56163 | 43.65236 | 39758 ft | 465 kts | 328° |
| 2026-04-24 16:56 | 36.59154 | 43.63678 | 39870 ft | 466 kts | 328° |
| 2026-04-24 16:56 | 36.62145 | 43.62118 | 39961 ft | 467 kts | 328° |
| 2026-04-24 16:56 | 36.68100 | 43.59009 | 39982 ft | 467 kts | 329° |
| 2026-04-24 16:57 | 36.74099 | 43.55874 | 39988 ft | 467 kts | 329° |
| 2026-04-24 16:57 | 36.80057 | 43.52662 | 39995 ft | 466 kts | 328° |
| 2026-04-24 16:58 | 36.85960 | 43.49324 | 40008 ft | 465 kts | 327° |
| 2026-04-24 16:58 | 36.91817 | 43.46008 | 40010 ft | 465 kts | 328° |
| 2026-04-24 16:59 | 36.97728 | 43.42684 | 40023 ft | 466 kts | 328° |
| 2026-04-24 17:00 | 37.06620 | 43.37692 | 40020 ft | 468 kts | 328° |
| 2026-04-24 17:00 | 37.15535 | 43.32677 | 40033 ft | 469 kts | 328° |
| 2026-04-24 17:01 | 37.24409 | 43.27670 | 40021 ft | 468 kts | 328° |
| 2026-04-24 17:02 | 37.32907 | 43.21914 | 40027 ft | 455 kts | 315° |
| 2026-04-24 17:02 | 37.37163 | 43.16250 | 40028 ft | 441 kts | 298° |
| 2026-04-24 17:03 | 37.41653 | 43.06330 | 40022 ft | 436 kts | 292° |
| 2026-04-24 17:04 | 37.44470 | 42.99594 | 40009 ft | 435 kts | 292° |
| 2026-04-24 17:04 | 37.48713 | 42.89503 | 40007 ft | 435 kts | 293° |
| 2026-04-24 17:05 | 37.51540 | 42.82824 | 40011 ft | 435 kts | 293° |
| 2026-04-24 17:06 | 37.55802 | 42.72744 | 39996 ft | 434 kts | 292° |
| 2026-04-24 17:06 | 37.60034 | 42.62704 | 39998 ft | 434 kts | 292° |
| 2026-04-24 17:07 | 37.62868 | 42.55980 | 39997 ft | 434 kts | 292° |
| 2026-04-24 17:08 | 37.68512 | 42.42528 | 39980 ft | 434 kts | 292° |
| 2026-04-24 17:08 | 37.71331 | 42.35791 | 39971 ft | 433 kts | 292° |
| 2026-04-24 17:09 | 37.76925 | 42.22379 | 39964 ft | 433 kts | 292° |
| 2026-04-24 17:10 | 37.82530 | 42.08887 | 39953 ft | 433 kts | 292° |
| 2026-04-24 17:12 | 37.94887 | 41.82684 | 39942 ft | 443 kts | 304° |